Time;durP1;ratioP1;P1;durP2;ratioP2;P2;SDS_P1;SDS_P2;PMS_P1;PMS_P2;Temp;Humidity;BMP_temperature;BMP_pressure;BME280_temperature;BME280_humidity;BME280_pressure;Samples;Min_cycle;Max_cycle;Signal;HPM_P1;HPM_P2
2023/09/06 00:00:42;;;;;;;4.22;3.08;;;;;;;;;;5032478;28;20103;-60
2023/09/06 00:03:09;;;;;;;4.50;3.08;;;;;;;;;;5046170;28;20032;-58
2023/09/06 00:05:34;;;;;;;6.28;3.30;;;;;;;;;;5048774;28;20025;-57
2023/09/06 00:08:04;;;;;;;4.78;3.08;;;;;;;;;;5039542;28;20362;-58
2023/09/06 00:10:29;;;;;;;6.32;3.13;;;;;;;;;;5042167;28;20116;-58
2023/09/06 00:12:54;;;;;;;4.50;3.20;;;;;;;;;;5043403;28;20124;-56
2023/09/06 00:15:20;;;;;;;5.95;3.17;;;;;;;;;;5047782;28;20041;-58
2023/09/06 00:17:45;;;;;;;4.45;2.90;;;;;;;;;;5032406;28;20033;-58
2023/09/06 00:20:19;;;;;;;5.03;3.05;;;;;;;;;;5033587;28;20130;-57
2023/09/06 00:22:58;;;;;;;4.63;3.08;;;;;;;;;;5048774;28;20044;-60
2023/09/06 00:25:25;;;;;;;4.65;2.90;;;;;;;;;;5040034;28;20045;-57
2023/09/06 00:27:51;;;;;;;4.00;2.90;;;;;;;;;;5033347;28;20036;-56
2023/09/06 00:30:20;;;;;;;6.88;3.40;;;;;;;;;;5034611;28;20103;-57
2023/09/06 00:32:47;;;;;;;6.22;3.20;;;;;;;;;;5033777;28;20044;-57
2023/09/06 00:35:16;;;;;;;5.80;3.30;;;;;;;;;;5047030;28;20244;-57
2023/09/06 00:37:42;;;;;;;4.00;3.08;;;;;;;;;;5050198;28;20039;-57
2023/09/06 00:40:12;;;;;;;4.90;3.10;;;;;;;;;;5046709;28;20112;-58
2023/09/06 00:42:38;;;;;;;3.83;2.97;;;;;;;;;;5032274;28;20358;-58
2023/09/06 00:45:04;;;;;;;4.53;3.17;;;;;;;;;;5048601;28;20081;-55
2023/09/06 00:47:30;;;;;;;4.20;3.00;;;;;;;;;;5052261;28;20033;-57
2023/09/06 00:49:55;;;;;;;5.68;3.03;;;;;;;;;;5048380;28;20114;-55
2023/09/06 00:52:21;;;;;;;3.67;2.80;;;;;;;;;;5049313;28;20415;-57
2023/09/06 00:54:48;;;;;;;5.75;3.10;;;;;;;;;;5042909;28;20033;-57
2023/09/06 00:57:13;;;;;;;5.88;3.00;;;;;;;;;;5037126;28;20029;-57
2023/09/06 00:59:39;;;;;;;5.32;3.20;;;;;;;;;;5032505;28;20044;-58
2023/09/06 01:02:05;;;;;;;4.20;3.05;;;;;;;;;;5036722;28;20167;-58
2023/09/06 01:04:30;;;;;;;3.83;3.00;;;;;;;;;;5043649;28;20485;-56
2023/09/06 01:07:00;;;;;;;5.75;3.10;;;;;;;;;;5040494;28;20434;-57
2023/09/06 01:09:28;;;;;;;4.47;2.90;;;;;;;;;;5042890;28;20029;-57
2023/09/06 01:11:53;;;;;;;5.22;3.05;;;;;;;;;;5050381;28;20033;-57
2023/09/06 01:14:19;;;;;;;4.13;2.80;;;;;;;;;;5051352;28;20043;-57
2023/09/06 01:16:48;;;;;;;6.70;2.95;;;;;;;;;;5049517;28;20083;-57
2023/09/06 01:19:15;;;;;;;4.82;3.00;;;;;;;;;;5049165;28;20489;-57
2023/09/06 01:22:17;;;;;;;5.50;3.40;;;;;;;;;;5050786;28;20025;-58
2023/09/06 01:24:43;;;;;;;6.53;3.00;;;;;;;;;;5015727;28;20048;-57
2023/09/06 01:27:09;;;;;;;3.88;2.72;;;;;;;;;;5032478;28;20029;-56
2023/09/06 01:29:35;;;;;;;5.53;3.05;;;;;;;;;;5048133;28;20502;-58
2023/09/06 01:32:01;;;;;;;5.68;3.00;;;;;;;;;;5039113;28;20104;-58
2023/09/06 01:34:26;;;;;;;5.75;3.55;;;;;;;;;;5043767;28;20040;-57
2023/09/06 01:36:52;;;;;;;4.70;3.10;;;;;;;;;;5031205;28;20406;-57
2023/09/06 01:39:17;;;;;;;5.53;3.20;;;;;;;;;;5044171;28;20055;-57
2023/09/06 01:41:42;;;;;;;5.65;3.22;;;;;;;;;;5044023;28;20036;-58
2023/09/06 01:44:08;;;;;;;4.78;3.10;;;;;;;;;;5053491;28;20032;-57
2023/09/06 01:46:33;;;;;;;4.32;3.08;;;;;;;;;;5054585;28;20111;-57
2023/09/06 01:49:02;;;;;;;4.78;3.00;;;;;;;;;;5054359;28;20032;-57
2023/09/06 01:51:28;;;;;;;5.75;3.17;;;;;;;;;;5039643;28;20029;-58
2023/09/06 01:53:53;;;;;;;5.03;3.10;;;;;;;;;;5048648;28;20082;-58
2023/09/06 01:56:21;;;;;;;4.03;3.00;;;;;;;;;;5052015;28;20032;-58
2023/09/06 01:58:47;;;;;;;8.48;3.33;;;;;;;;;;5054310;28;20037;-58
2023/09/06 02:01:12;;;;;;;4.15;2.97;;;;;;;;;;5054321;28;20083;-58
2023/09/06 02:03:38;;;;;;;4.40;3.17;;;;;;;;;;5054090;28;20029;-58
2023/09/06 02:06:04;;;;;;;6.63;3.20;;;;;;;;;;5037394;28;20064;-58
2023/09/06 02:08:30;;;;;;;6.63;3.30;;;;;;;;;;5052551;28;20059;-58
2023/09/06 02:10:56;;;;;;;5.57;3.30;;;;;;;;;;5033440;28;20088;-57
2023/09/06 02:13:21;;;;;;;5.75;3.30;;;;;;;;;;5054649;28;20421;-56
2023/09/06 02:15:47;;;;;;;4.95;3.08;;;;;;;;;;5048374;28;20045;-58
2023/09/06 02:18:15;;;;;;;7.20;3.00;;;;;;;;;;5033996;28;20037;-57
2023/09/06 02:20:41;;;;;;;4.50;3.28;;;;;;;;;;5042194;28;20169;-57
2023/09/06 02:23:07;;;;;;;6.93;3.53;;;;;;;;;;5052938;28;20043;-57
2023/09/06 02:25:33;;;;;;;7.90;3.58;;;;;;;;;;5053843;28;20107;-56
2023/09/06 02:28:04;;;;;;;5.53;3.35;;;;;;;;;;5048971;28;20354;-55
2023/09/06 02:30:29;;;;;;;;;;;;;;;;;;5050297;28;20025;-56
2023/09/06 02:32:55;;;;;;;4.25;3.10;;;;;;;;;;5039166;28;19912;-58
2023/09/06 02:35:21;;;;;;;4.72;3.22;;;;;;;;;;5051589;28;20037;-56
2023/09/06 02:37:46;;;;;;;5.40;3.35;;;;;;;;;;5053212;28;20029;-55
2023/09/06 02:40:13;;;;;;;5.15;3.40;;;;;;;;;;5052124;28;20453;-57
2023/09/06 02:42:43;;;;;;;4.60;3.33;;;;;;;;;;5053276;28;20049;-58
2023/09/06 02:45:11;;;;;;;5.25;3.60;;;;;;;;;;5051550;28;20033;-56
2023/09/06 02:47:50;;;;;;;6.35;3.75;;;;;;;;;;5050211;28;20158;-56
2023/09/06 02:50:16;;;;;;;4.45;3.38;;;;;;;;;;5043663;28;20540;-57
2023/09/06 02:52:44;;;;;;;6.85;3.67;;;;;;;;;;5053366;28;20048;-56
2023/09/06 02:55:13;;;;;;;5.35;3.63;;;;;;;;;;5040765;28;20521;-56
2023/09/06 02:57:42;;;;;;;4.97;3.72;;;;;;;;;;5053654;28;20400;-57
2023/09/06 03:00:18;;;;;;;4.78;3.53;;;;;;;;;;5041685;28;20091;-57
2023/09/06 03:02:44;;;;;;;5.25;3.78;;;;;;;;;;5052412;28;20035;-57
2023/09/06 03:05:10;;;;;;;7.82;3.80;;;;;;;;;;5041631;28;20037;-56
2023/09/06 03:07:35;;;;;;;5.80;3.78;;;;;;;;;;5044860;28;20086;-56
2023/09/06 03:10:01;;;;;;;6.47;3.92;;;;;;;;;;5052495;28;20032;-56
2023/09/06 03:12:26;;;;;;;5.93;4.00;;;;;;;;;;5046099;28;20033;-57
2023/09/06 03:14:55;;;;;;;6.47;4.07;;;;;;;;;;5040930;28;20032;-57
2023/09/06 03:17:22;;;;;;;6.93;4.25;;;;;;;;;;5050901;28;20481;-56
2023/09/06 03:19:53;;;;;;;7.50;4.30;;;;;;;;;;5034345;28;20064;-57
2023/09/06 03:22:21;;;;;;;6.28;4.25;;;;;;;;;;5052853;28;20104;-57
2023/09/06 03:24:48;;;;;;;5.75;4.10;;;;;;;;;;5047461;28;20052;-59
2023/09/06 03:27:16;;;;;;;8.48;4.90;;;;;;;;;;5043596;28;20474;-57
2023/09/06 03:29:45;;;;;;;7.47;4.57;;;;;;;;;;5046684;28;20033;-60
2023/09/06 03:32:10;;;;;;;5.38;4.07;;;;;;;;;;5049040;28;20025;-60
2023/09/06 03:34:36;;;;;;;8.48;4.70;;;;;;;;;;5052265;28;20435;-60
2023/09/06 03:37:08;;;;;;;7.03;5.00;;;;;;;;;;5052589;28;20029;-61
2023/09/06 03:39:40;;;;;;;8.00;4.70;;;;;;;;;;5051085;28;20386;-60
2023/09/06 03:42:09;;;;;;;10.05;5.10;;;;;;;;;;5049948;28;20116;-60
2023/09/06 03:44:37;;;;;;;9.43;4.78;;;;;;;;;;5052906;28;20048;-60
2023/09/06 03:47:05;;;;;;;6.20;4.65;;;;;;;;;;5052409;28;20028;-60
2023/09/06 03:49:35;;;;;;;10.30;5.60;;;;;;;;;;5052699;28;20468;-60
2023/09/06 03:52:04;;;;;;;6.70;5.13;;;;;;;;;;5052761;28;20035;-60
2023/09/06 03:54:29;;;;;;;8.02;5.65;;;;;;;;;;5052746;28;20531;-60
2023/09/06 03:56:55;;;;;;;7.20;5.50;;;;;;;;;;5051575;28;20033;-60
2023/09/06 03:59:21;;;;;;;8.48;6.63;;;;;;;;;;5052038;28;20028;-60
2023/09/06 04:01:47;;;;;;;10.65;7.22;;;;;;;;;;5052421;28;20485;-60
2023/09/06 04:04:13;;;;;;;10.48;7.55;;;;;;;;;;5051307;28;20063;-60
2023/09/06 04:06:43;;;;;;;12.23;8.30;;;;;;;;;;5052549;28;20029;-61
2023/09/06 04:09:13;;;;;;;14.30;8.95;;;;;;;;;;5050698;28;20025;-60
2023/09/06 04:11:41;;;;;;;11.60;8.53;;;;;;;;;;5050779;28;20040;-61
2023/09/06 04:14:09;;;;;;;12.35;8.10;;;;;;;;;;5052140;28;20257;-60
2023/09/06 04:16:37;;;;;;;12.88;8.73;;;;;;;;;;5052191;28;20048;-60
2023/09/06 04:19:05;;;;;;;10.43;7.43;;;;;;;;;;5052516;28;20077;-60
2023/09/06 04:21:31;;;;;;;10.65;8.20;;;;;;;;;;5052695;28;20064;-60
2023/09/06 04:23:56;;;;;;;13.68;8.48;;;;;;;;;;5052587;28;20029;-60
2023/09/06 04:26:22;;;;;;;11.15;8.10;;;;;;;;;;5038141;28;20030;-60
2023/09/06 04:28:47;;;;;;;12.55;8.13;;;;;;;;;;5032425;28;20033;-60
2023/09/06 04:31:13;;;;;;;13.05;7.35;;;;;;;;;;5031520;28;20047;-60
2023/09/06 04:33:39;;;;;;;13.38;7.60;;;;;;;;;;5032435;28;20108;-60
2023/09/06 04:36:04;;;;;;;10.70;7.50;;;;;;;;;;5030822;28;20477;-60
2023/09/06 04:38:31;;;;;;;10.32;7.38;;;;;;;;;;5063415;28;20029;-60
2023/09/06 04:40:56;;;;;;;9.88;7.00;;;;;;;;;;5043526;28;20029;-60
2023/09/06 04:43:22;;;;;;;11.32;7.28;;;;;;;;;;5051390;28;20051;-60
2023/09/06 04:45:49;;;;;;;11.40;7.10;;;;;;;;;;5052191;28;20461;-60
2023/09/06 04:48:16;;;;;;;11.05;7.53;;;;;;;;;;5051315;28;20032;-60
2023/09/06 04:50:43;;;;;;;10.57;7.18;;;;;;;;;;5051963;28;20037;-60
2023/09/06 04:53:09;;;;;;;12.80;7.05;;;;;;;;;;5051170;28;20033;-60
2023/09/06 04:55:35;;;;;;;12.65;7.13;;;;;;;;;;5040742;28;20120;-60
2023/09/06 04:58:05;;;;;;;13.18;7.10;;;;;;;;;;5030690;28;20120;-60
2023/09/06 05:00:35;;;;;;;15.82;7.03;;;;;;;;;;5031066;28;20570;-60
2023/09/06 05:03:01;;;;;;;13.20;7.25;;;;;;;;;;5030849;28;20413;-60
2023/09/06 05:05:27;;;;;;;11.27;7.28;;;;;;;;;;5030658;28;20099;-60
2023/09/06 05:07:52;;;;;;;12.25;7.35;;;;;;;;;;5031623;28;20055;-60
2023/09/06 05:10:18;;;;;;;13.00;7.35;;;;;;;;;;5041346;28;20033;-60
2023/09/06 05:12:45;;;;;;;11.73;6.78;;;;;;;;;;5051448;28;20090;-59
2023/09/06 05:15:12;;;;;;;10.73;6.47;;;;;;;;;;5049169;28;20055;-61
2023/09/06 05:17:38;;;;;;;12.27;7.10;;;;;;;;;;5051636;28;20071;-61
2023/09/06 05:20:25;;;;;;;12.10;7.07;;;;;;;;;;5051644;28;20029;-61
2023/09/06 05:22:51;;;;;;;11.77;6.63;;;;;;;;;;5051382;28;20104;-61
2023/09/06 05:25:17;;;;;;;14.77;6.38;;;;;;;;;;5041331;28;20116;-61
2023/09/06 05:27:42;;;;;;;10.88;6.35;;;;;;;;;;5031736;28;20034;-61
2023/09/06 05:30:08;;;;;;;10.40;6.60;;;;;;;;;;5031068;28;20033;-61
2023/09/06 05:32:34;;;;;;;9.38;6.00;;;;;;;;;;5030902;28;20026;-61
2023/09/06 05:34:59;;;;;;;16.00;6.53;;;;;;;;;;5030349;28;20033;-61
2023/09/06 05:37:25;;;;;;;14.55;5.90;;;;;;;;;;5062383;28;20026;-62
2023/09/06 05:39:50;;;;;;;12.65;5.70;;;;;;;;;;5035181;28;20108;-61
2023/09/06 05:42:16;;;;;;;8.90;5.72;;;;;;;;;;5030649;28;20038;-61
2023/09/06 05:44:42;;;;;;;11.15;5.20;;;;;;;;;;5031531;28;20026;-61
2023/09/06 05:47:08;;;;;;;9.18;5.20;;;;;;;;;;5031383;28;20036;-61
2023/09/06 05:49:35;;;;;;;10.48;5.50;;;;;;;;;;5030630;28;20029;-61
2023/09/06 05:52:02;;;;;;;12.15;4.88;;;;;;;;;;5031424;28;20087;-61
2023/09/06 05:54:27;;;;;;;11.48;5.20;;;;;;;;;;5034388;28;20021;-61
2023/09/06 05:56:52;;;;;;;7.68;4.90;;;;;;;;;;5031409;28;20030;-61
2023/09/06 05:59:19;;;;;;;7.95;4.95;;;;;;;;;;5030676;28;20112;-60
2023/09/06 06:01:44;;;;;;;7.72;4.50;;;;;;;;;;5031356;28;20041;-60
2023/09/06 06:04:11;;;;;;;9.25;4.15;;;;;;;;;;5031180;28;20133;-60
2023/09/06 06:06:36;;;;;;;9.77;4.57;;;;;;;;;;5031022;28;20026;-61
2023/09/06 06:09:04;;;;;;;7.63;4.55;;;;;;;;;;5035651;28;20104;-61
2023/09/06 06:11:29;;;;;;;12.15;4.60;;;;;;;;;;5049561;28;20091;-60
2023/09/06 06:13:55;;;;;;;9.30;4.40;;;;;;;;;;5051304;28;20064;-60
2023/09/06 06:16:20;;;;;;;7.03;4.43;;;;;;;;;;5047887;28;20094;-61
2023/09/06 06:18:50;;;;;;;5.97;4.00;;;;;;;;;;5051140;28;20102;-60
2023/09/06 06:21:15;;;;;;;9.40;4.40;;;;;;;;;;5050279;28;20519;-60
2023/09/06 06:23:46;;;;;;;6.93;4.10;;;;;;;;;;5051176;28;20032;-60
2023/09/06 06:26:11;;;;;;;;;;;;;;;;;;5051495;28;20040;-62
2023/09/06 06:28:37;;;;;;;7.93;4.15;;;;;;;;;;5053468;28;19975;-61
2023/09/06 06:31:02;;;;;;;6.43;3.90;;;;;;;;;;5053654;28;20029;-60
2023/09/06 06:33:28;;;;;;;7.22;3.85;;;;;;;;;;5052559;28;20039;-60
2023/09/06 06:35:53;;;;;;;8.48;4.20;;;;;;;;;;5054396;28;20113;-60
2023/09/06 06:38:21;;;;;;;8.07;3.90;;;;;;;;;;5053693;28;20025;-60
2023/09/06 06:40:46;;;;;;;9.18;3.85;;;;;;;;;;5054486;28;20454;-60
2023/09/06 06:43:12;;;;;;;8.32;4.07;;;;;;;;;;5052839;28;20036;-60
2023/09/06 06:45:37;;;;;;;8.70;4.32;;;;;;;;;;5050286;28;20102;-62
2023/09/06 06:48:03;;;;;;;5.90;3.83;;;;;;;;;;5034731;28;20038;-61
2023/09/06 06:50:28;;;;;;;12.73;4.18;;;;;;;;;;5065458;28;20030;-62
2023/09/06 06:52:53;;;;;;;7.32;4.00;;;;;;;;;;5034003;28;20040;-61
2023/09/06 06:55:19;;;;;;;7.00;4.00;;;;;;;;;;5033636;28;20029;-62
2023/09/06 06:57:45;;;;;;;9.77;4.32;;;;;;;;;;5034134;28;20045;-61
2023/09/06 07:00:11;;;;;;;9.07;4.20;;;;;;;;;;5034156;28;20450;-61
2023/09/06 07:02:39;;;;;;;12.32;4.43;;;;;;;;;;5051392;28;20598;-61
2023/09/06 07:05:05;;;;;;;9.18;3.70;;;;;;;;;;5054034;28;20025;-61
2023/09/06 07:07:31;;;;;;;9.88;3.85;;;;;;;;;;5053122;28;20055;-61
2023/09/06 07:09:56;;;;;;;6.50;3.63;;;;;;;;;;5053986;28;20442;-61
2023/09/06 07:12:21;;;;;;;6.35;3.50;;;;;;;;;;5053290;28;20048;-61
2023/09/06 07:14:50;;;;;;;7.32;3.97;;;;;;;;;;5053678;28;20071;-61
2023/09/06 07:17:16;;;;;;;7.22;3.88;;;;;;;;;;5052603;28;20036;-61
2023/09/06 07:19:41;;;;;;;6.47;3.50;;;;;;;;;;5053335;28;20141;-61
2023/09/06 07:22:07;;;;;;;7.40;3.42;;;;;;;;;;5053622;28;20028;-61
2023/09/06 07:24:32;;;;;;;14.45;5.78;;;;;;;;;;5052804;28;20465;-61
2023/09/06 07:26:57;;;;;;;9.38;3.50;;;;;;;;;;5053792;28;20029;-60
2023/09/06 07:29:23;;;;;;;9.05;4.05;;;;;;;;;;5051412;28;20108;-60
2023/09/06 07:31:49;;;;;;;7.60;3.30;;;;;;;;;;5036978;28;20025;-60
2023/09/06 07:34:14;;;;;;;14.40;3.75;;;;;;;;;;5033130;28;20030;-61
2023/09/06 07:36:40;;;;;;;5.85;3.17;;;;;;;;;;5032891;28;20506;-61
2023/09/06 07:39:07;;;;;;;6.60;3.60;;;;;;;;;;5033547;28;20115;-61
2023/09/06 07:41:34;;;;;;;8.68;3.30;;;;;;;;;;5032420;28;20025;-61
2023/09/06 07:43:59;;;;;;;10.30;3.58;;;;;;;;;;5033348;28;20029;-61
2023/09/06 07:46:28;;;;;;;8.45;3.50;;;;;;;;;;5031453;28;20104;-61
2023/09/06 07:48:54;;;;;;;8.50;3.78;;;;;;;;;;5031855;28;20124;-61
2023/09/06 07:51:19;;;;;;;6.07;3.35;;;;;;;;;;5032356;28;20113;-61
2023/09/06 07:53:45;;;;;;;6.25;3.20;;;;;;;;;;5037523;28;20105;-61
2023/09/06 07:56:11;;;;;;;6.18;3.22;;;;;;;;;;5033125;28;20053;-61
2023/09/06 07:58:36;;;;;;;9.38;3.20;;;;;;;;;;5032374;28;20029;-61
2023/09/06 08:01:04;;;;;;;8.55;3.30;;;;;;;;;;5033365;28;20061;-61
2023/09/06 08:03:29;;;;;;;8.82;3.53;;;;;;;;;;5031947;28;20033;-61
2023/09/06 08:05:54;;;;;;;6.68;3.20;;;;;;;;;;5033093;28;20029;-61
2023/09/06 08:08:20;;;;;;;6.68;3.20;;;;;;;;;;5038735;28;20040;-61
2023/09/06 08:10:46;;;;;;;5.60;3.40;;;;;;;;;;5052739;28;20025;-61
2023/09/06 08:13:11;;;;;;;6.35;3.40;;;;;;;;;;5052655;28;20029;-61
2023/09/06 08:15:37;;;;;;;6.97;3.40;;;;;;;;;;5051824;28;20314;-61
2023/09/06 08:18:03;;;;;;;7.85;3.53;;;;;;;;;;5052343;28;20036;-60
2023/09/06 08:20:30;;;;;;;9.20;3.40;;;;;;;;;;5051439;28;20516;-61
2023/09/06 08:22:56;;;;;;;5.50;3.00;;;;;;;;;;5051451;28;20040;-61
2023/09/06 08:25:21;;;;;;;6.03;2.95;;;;;;;;;;5051753;28;20025;-61
2023/09/06 08:27:49;;;;;;;4.78;3.05;;;;;;;;;;5040693;28;20029;-61
2023/09/06 08:30:17;;;;;;;4.55;2.80;;;;;;;;;;5032216;28;20452;-61
2023/09/06 08:32:44;;;;;;;5.75;2.83;;;;;;;;;;5030301;28;20037;-60
2023/09/06 08:35:13;;;;;;;5.07;3.13;;;;;;;;;;5032243;28;20025;-60
2023/09/06 08:37:39;;;;;;;6.18;2.88;;;;;;;;;;5030287;28;20238;-60
2023/09/06 08:40:05;;;;;;;4.40;2.90;;;;;;;;;;5032326;28;20049;-61
2023/09/06 08:42:34;;;;;;;5.43;2.72;;;;;;;;;;5043334;28;20390;-60
2023/09/06 08:45:01;;;;;;;5.95;3.00;;;;;;;;;;5052216;28;20029;-61
2023/09/06 08:47:28;;;;;;;4.40;2.70;;;;;;;;;;5050087;28;20040;-62
2023/09/06 08:49:54;;;;;;;4.78;2.90;;;;;;;;;;5051768;28;20497;-60
2023/09/06 08:52:20;;;;;;;5.22;3.28;;;;;;;;;;5051751;28;20033;-60
2023/09/06 08:54:46;;;;;;;5.18;2.90;;;;;;;;;;5031974;28;20044;-60
2023/09/06 08:57:13;;;;;;;5.78;2.95;;;;;;;;;;5032020;28;20021;-61
2023/09/06 08:59:40;;;;;;;4.70;3.30;;;;;;;;;;5031084;28;20037;-61
2023/09/06 09:02:10;;;;;;;5.40;3.00;;;;;;;;;;5032047;28;20113;-61
2023/09/06 09:04:40;;;;;;;4.88;3.17;;;;;;;;;;5030194;28;20095;-61
2023/09/06 09:07:07;;;;;;;4.60;3.20;;;;;;;;;;5032245;28;20098;-61
2023/09/06 09:09:33;;;;;;;7.70;3.15;;;;;;;;;;5047897;28;20036;-61
2023/09/06 09:11:59;;;;;;;5.57;3.38;;;;;;;;;;5051702;28;20033;-61
2023/09/06 09:14:25;;;;;;;6.45;3.05;;;;;;;;;;5050743;28;20477;-61
2023/09/06 09:16:54;;;;;;;5.13;3.20;;;;;;;;;;5051331;28;20041;-61
2023/09/06 09:19:21;;;;;;;6.57;3.35;;;;;;;;;;5051206;28;20168;-61
2023/09/06 09:21:51;;;;;;;5.35;3.45;;;;;;;;;;5051313;28;20040;-61
2023/09/06 09:24:29;;;;;;;4.60;3.13;;;;;;;;;;5032422;28;20044;-62
2023/09/06 09:26:56;;;;;;;7.28;3.60;;;;;;;;;;5031702;28;20037;-62
2023/09/06 09:29:27;;;;;;;6.20;3.40;;;;;;;;;;5031430;28;20060;-61
2023/09/06 09:31:53;;;;;;;7.80;3.47;;;;;;;;;;5031699;28;20037;-61
2023/09/06 09:34:18;;;;;;;5.13;3.10;;;;;;;;;;5031737;28;20040;-62
2023/09/06 09:36:51;;;;;;;6.05;3.90;;;;;;;;;;5030733;28;20470;-62
2023/09/06 09:39:18;;;;;;;9.20;3.45;;;;;;;;;;5031652;28;20037;-62
2023/09/06 09:41:43;;;;;;;6.40;3.60;;;;;;;;;;5030916;28;20049;-61
2023/09/06 09:44:16;;;;;;;6.13;3.67;;;;;;;;;;5031683;28;20064;-61
2023/09/06 09:46:45;;;;;;;6.63;3.65;;;;;;;;;;5030898;28;20029;-61
2023/09/06 09:49:12;;;;;;;7.90;3.78;;;;;;;;;;5030480;28;20466;-61
2023/09/06 09:51:40;;;;;;;7.07;3.55;;;;;;;;;;5031177;28;20047;-62
2023/09/06 09:54:06;;;;;;;5.28;3.70;;;;;;;;;;5051306;28;20485;-62
2023/09/06 09:56:37;;;;;;;6.68;3.60;;;;;;;;;;5050683;28;20103;-62
2023/09/06 09:59:04;;;;;;;5.28;3.80;;;;;;;;;;5051218;28;20057;-62
2023/09/06 10:01:31;;;;;;;6.78;3.85;;;;;;;;;;5049542;28;20036;-60
2023/09/06 10:04:00;;;;;;;5.25;3.58;;;;;;;;;;5054159;28;20127;-61
2023/09/06 10:06:32;;;;;;;5.05;3.40;;;;;;;;;;5054694;28;20120;-61
2023/09/06 10:08:59;;;;;;;5.07;3.60;;;;;;;;;;5053909;28;20025;-61
2023/09/06 10:11:26;;;;;;;6.05;3.30;;;;;;;;;;5054881;28;20033;-61
2023/09/06 10:13:52;;;;;;;5.55;3.30;;;;;;;;;;5054517;28;20520;-62
2023/09/06 10:16:19;;;;;;;4.85;3.20;;;;;;;;;;5055011;28;20080;-61
2023/09/06 10:18:44;;;;;;;6.13;3.50;;;;;;;;;;5051934;28;20195;-62
2023/09/06 10:21:11;;;;;;;7.50;3.78;;;;;;;;;;5052943;28;20119;-61
2023/09/06 10:23:43;;;;;;;6.40;3.15;;;;;;;;;;5053926;28;20028;-62
2023/09/06 10:26:09;;;;;;;4.53;3.20;;;;;;;;;;5054849;28;20032;-61
2023/09/06 10:28:35;;;;;;;5.80;3.28;;;;;;;;;;5053935;28;20051;-61
2023/09/06 10:31:08;;;;;;;4.68;3.33;;;;;;;;;;5054814;28;20036;-62
2023/09/06 10:33:36;;;;;;;5.65;3.35;;;;;;;;;;5053866;28;20029;-62
2023/09/06 10:36:19;;;;;;;4.55;2.92;;;;;;;;;;5053653;28;20036;-61
2023/09/06 10:38:51;;;;;;;5.78;3.17;;;;;;;;;;5047168;28;20037;-62
2023/09/06 10:41:18;;;;;;;4.53;2.83;;;;;;;;;;5034720;28;20029;-62
2023/09/06 10:43:59;;;;;;;4.85;3.17;;;;;;;;;;5033933;28;20033;-61
2023/09/06 10:46:26;;;;;;;7.45;3.13;;;;;;;;;;5034635;28;20061;-61
2023/09/06 10:49:13;;;;;;;5.47;3.15;;;;;;;;;;5033961;28;20042;-61
2023/09/06 10:52:14;;;;;;;6.13;3.33;;;;;;;;;;5061362;28;20048;-60
2023/09/06 10:54:42;;;;;;;7.75;3.38;;;;;;;;;;5009844;28;20112;-62
2023/09/06 10:57:14;;;;;;;11.00;3.53;;;;;;;;;;5029855;28;20033;-61
2023/09/06 10:59:43;;;;;;;4.93;3.20;;;;;;;;;;5033688;28;20467;-61
2023/09/06 11:02:26;;;;;;;4.70;2.90;;;;;;;;;;5034326;28;20073;-61
2023/09/06 11:05:09;;;;;;;4.82;3.00;;;;;;;;;;5031918;28;20029;-61
2023/09/06 11:07:43;;;;;;;5.82;3.28;;;;;;;;;;5032129;28;20065;-61
2023/09/06 11:10:09;;;;;;;4.88;3.00;;;;;;;;;;5032666;28;20028;-61
2023/09/06 11:12:36;;;;;;;6.25;3.10;;;;;;;;;;5032800;28;20037;-61
2023/09/06 11:15:01;;;;;;;4.72;3.00;;;;;;;;;;5033350;28;20057;-62
2023/09/06 11:17:27;;;;;;;7.55;3.30;;;;;;;;;;5033949;28;20382;-61
2023/09/06 11:19:52;;;;;;;5.28;3.10;;;;;;;;;;5033768;28;20454;-61
2023/09/06 11:22:19;;;;;;;6.55;3.30;;;;;;;;;;5050903;28;20033;-62
2023/09/06 11:24:44;;;;;;;5.53;3.28;;;;;;;;;;5052109;28;20037;-61
2023/09/06 11:27:20;;;;;;;4.25;3.30;;;;;;;;;;5053760;28;20094;-62
2023/09/06 11:29:55;;;;;;;6.05;3.63;;;;;;;;;;5052503;28;20033;-61
2023/09/06 11:32:21;;;;;;;5.63;3.53;;;;;;;;;;5034268;28;20037;-61
2023/09/06 11:34:46;;;;;;;5.25;3.83;;;;;;;;;;5052722;28;20159;-61
2023/09/06 11:37:15;;;;;;;5.90;3.72;;;;;;;;;;5052099;28;20071;-60
2023/09/06 11:39:42;;;;;;;8.13;4.20;;;;;;;;;;5052618;28;20108;-61
2023/09/06 11:42:15;;;;;;;5.53;4.20;;;;;;;;;;5053417;28;20029;-61
2023/09/06 11:44:50;;;;;;;7.75;4.10;;;;;;;;;;5051175;28;20036;-62
2023/09/06 11:47:22;;;;;;;4.90;4.28;;;;;;;;;;5051928;28;20036;-61
2023/09/06 11:49:49;;;;;;;5.22;4.60;;;;;;;;;;5052467;28;20075;-61
2023/09/06 11:52:16;;;;;;;7.22;4.90;;;;;;;;;;5053100;28;20039;-62
2023/09/06 11:54:43;;;;;;;5.30;4.80;;;;;;;;;;5052217;28;20100;-61
2023/09/06 11:57:30;;;;;;;7.40;4.45;;;;;;;;;;5053361;28;20029;-61
2023/09/06 12:00:00;;;;;;;5.28;4.78;;;;;;;;;;5052369;28;20059;-61
2023/09/06 12:02:30;;;;;;;;;;;;;;;;;;5034363;28;20033;-62
2023/09/06 12:05:00;;;;;;;8.48;5.22;;;;;;;;;;5031800;28;20269;-62
2023/09/06 12:07:29;;;;;;;6.03;4.90;;;;;;;;;;5032651;28;20486;-62
2023/09/06 12:10:00;;;;;;;5.20;4.80;;;;;;;;;;5031916;28;20026;-62
2023/09/06 12:12:26;;;;;;;6.03;5.07;;;;;;;;;;5032897;28;20349;-62
2023/09/06 12:14:51;;;;;;;6.95;5.20;;;;;;;;;;5031071;28;20621;-63
2023/09/06 12:17:20;;;;;;;5.63;5.10;;;;;;;;;;5032759;28;20087;-62
2023/09/06 12:19:46;;;;;;;6.55;5.10;;;;;;;;;;5032046;28;20064;-63
2023/09/06 12:22:17;;;;;;;6.10;5.05;;;;;;;;;;5032749;28;20087;-62
2023/09/06 12:24:46;;;;;;;6.10;5.55;;;;;;;;;;5031114;28;20540;-63
2023/09/06 12:27:20;;;;;;;8.55;5.13;;;;;;;;;;5031418;28;20086;-62
2023/09/06 12:29:45;;;;;;;6.57;5.00;;;;;;;;;;5048162;28;20033;-62
2023/09/06 12:32:11;;;;;;;7.40;5.40;;;;;;;;;;5034759;28;20440;-61
2023/09/06 12:34:37;;;;;;;8.05;5.40;;;;;;;;;;5031229;28;20021;-61
2023/09/06 12:37:02;;;;;;;6.30;5.70;;;;;;;;;;5031033;28;20035;-62
2023/09/06 12:39:28;;;;;;;6.75;5.65;;;;;;;;;;5032338;28;20028;-61
2023/09/06 12:41:53;;;;;;;5.97;5.40;;;;;;;;;;5031563;28;20079;-62
2023/09/06 12:44:19;;;;;;;5.80;5.30;;;;;;;;;;5032257;28;20075;-64
2023/09/06 12:46:44;;;;;;;5.85;5.30;;;;;;;;;;5043480;28;20476;-62
2023/09/06 12:49:10;;;;;;;6.30;5.47;;;;;;;;;;5034026;28;20041;-61
2023/09/06 12:51:37;;;;;;;7.65;5.60;;;;;;;;;;5031236;28;20038;-60
2023/09/06 12:54:03;;;;;;;5.90;5.32;;;;;;;;;;5032050;28;20025;-61
2023/09/06 12:56:28;;;;;;;6.20;5.60;;;;;;;;;;5031841;28;20386;-61
2023/09/06 12:58:54;;;;;;;6.20;5.60;;;;;;;;;;5029995;28;20036;-61
2023/09/06 13:01:19;;;;;;;5.60;5.07;;;;;;;;;;5031925;28;20037;-62
2023/09/06 13:03:45;;;;;;;6.68;5.60;;;;;;;;;;5047038;28;20036;-61
2023/09/06 13:06:11;;;;;;;6.68;5.32;;;;;;;;;;5051540;28;20033;-61
2023/09/06 13:08:36;;;;;;;6.82;5.10;;;;;;;;;;5051052;28;20416;-61
2023/09/06 13:11:03;;;;;;;6.90;5.30;;;;;;;;;;5051247;28;20100;-61
2023/09/06 13:13:29;;;;;;;6.10;5.28;;;;;;;;;;5051690;28;20095;-61
2023/09/06 13:15:54;;;;;;;6.28;5.68;;;;;;;;;;5050325;28;20207;-61
2023/09/06 13:18:20;;;;;;;6.03;5.40;;;;;;;;;;5049694;28;20453;-61
2023/09/06 13:20:46;;;;;;;6.22;5.57;;;;;;;;;;5049100;28;20473;-61
2023/09/06 13:23:11;;;;;;;6.45;5.20;;;;;;;;;;5051928;28;20108;-62
2023/09/06 13:25:37;;;;;;;6.85;5.32;;;;;;;;;;5051165;28;20029;-61
2023/09/06 13:28:04;;;;;;;6.00;5.45;;;;;;;;;;5051319;28;20111;-62
2023/09/06 13:30:30;;;;;;;7.05;5.68;;;;;;;;;;5051540;28;20036;-61
2023/09/06 13:32:55;;;;;;;5.75;5.25;;;;;;;;;;5050394;28;20028;-61
2023/09/06 13:35:21;;;;;;;6.35;5.75;;;;;;;;;;5047117;28;20036;-61
2023/09/06 13:37:46;;;;;;;7.07;5.68;;;;;;;;;;5052758;28;20029;-61
2023/09/06 13:40:12;;;;;;;7.22;5.70;;;;;;;;;;5055699;28;20031;-61
2023/09/06 13:42:37;;;;;;;6.15;5.65;;;;;;;;;;5055303;28;20055;-61
2023/09/06 13:45:04;;;;;;;7.03;5.80;;;;;;;;;;5052888;28;20100;-61
2023/09/06 13:47:30;;;;;;;6.32;5.82;;;;;;;;;;5034374;28;20033;-61
2023/09/06 13:49:57;;;;;;;7.50;5.50;;;;;;;;;;5033554;28;20056;-61
2023/09/06 13:52:22;;;;;;;6.25;5.65;;;;;;;;;;5035517;28;20125;-61
2023/09/06 13:54:48;;;;;;;6.25;5.70;;;;;;;;;;5034561;28;20458;-60
2023/09/06 13:57:13;;;;;;;7.70;5.80;;;;;;;;;;5034086;28;20026;-62
2023/09/06 13:59:41;;;;;;;10.07;5.85;;;;;;;;;;5035101;28;20124;-61
2023/09/06 14:02:06;;;;;;;7.50;5.80;;;;;;;;;;5046204;28;20473;-61
2023/09/06 14:04:32;;;;;;;6.80;5.82;;;;;;;;;;5053748;28;20036;-61
2023/09/06 14:06:57;;;;;;;6.72;6.13;;;;;;;;;;5054094;28;20021;-61
2023/09/06 14:09:23;;;;;;;6.95;6.22;;;;;;;;;;5053846;28;20041;-61
2023/09/06 14:11:49;;;;;;;6.38;5.78;;;;;;;;;;5052844;28;20025;-60
2023/09/06 14:14:14;;;;;;;7.63;5.80;;;;;;;;;;5054849;28;20033;-62
2023/09/06 14:16:40;;;;;;;6.80;5.75;;;;;;;;;;5052736;28;20122;-62
2023/09/06 14:19:05;;;;;;;6.40;5.80;;;;;;;;;;5052553;28;20717;-62
2023/09/06 14:21:33;;;;;;;7.70;5.65;;;;;;;;;;5054739;28;20056;-62
2023/09/06 14:23:58;;;;;;;7.28;5.65;;;;;;;;;;5053878;28;20264;-60
2023/09/06 14:26:24;;;;;;;7.40;5.78;;;;;;;;;;5053521;28;20420;-61
2023/09/06 14:28:49;;;;;;;8.77;5.70;;;;;;;;;;5052569;28;20366;-62
2023/09/06 14:31:15;;;;;;;6.28;5.68;;;;;;;;;;5054715;28;20029;-62
2023/09/06 14:33:40;;;;;;;6.38;5.45;;;;;;;;;;5053124;28;20044;-61
2023/09/06 14:36:06;;;;;;;6.03;5.30;;;;;;;;;;5051856;28;20063;-61
2023/09/06 14:38:32;;;;;;;6.25;5.50;;;;;;;;;;5053162;28;20029;-62
2023/09/06 14:40:57;;;;;;;6.93;5.70;;;;;;;;;;5053598;28;20033;-62
2023/09/06 14:43:24;;;;;;;9.13;6.20;;;;;;;;;;5053051;28;20041;-62